Time;durP1;ratioP1;P1;durP2;ratioP2;P2;SDS_P1;SDS_P2;PMS_P1;PMS_P2;Temp;Humidity;BMP_temperature;BMP_pressure;BME280_temperature;BME280_humidity;BME280_pressure;Samples;Min_cycle;Max_cycle;Signal;HPM_P1;HPM_P2
2023/02/08 00:00:23;;;;;;;11.63;7.53;;;14.30;48.40;;;;;;4988967;28;20453;-78
2023/02/08 00:02:53;;;;;;;11.87;8.50;;;14.20;48.40;;;;;;4993540;28;20450;-78
2023/02/08 00:05:20;;;;;;;11.43;8.83;;;14.20;48.40;;;;;;4990488;28;20518;-79
2023/02/08 00:07:48;;;;;;;13.30;8.77;;;14.20;48.40;;;;;;4993613;28;20444;-78
2023/02/08 00:10:16;;;;;;;10.40;7.90;;;14.20;48.50;;;;;;4992485;28;20437;-78
2023/02/08 00:12:44;;;;;;;11.63;8.40;;;14.20;48.50;;;;;;4985460;28;20478;-79
2023/02/08 00:15:12;;;;;;;10.47;8.70;;;14.20;48.50;;;;;;4990722;28;20815;-77
2023/02/08 00:17:40;;;;;;;14.40;8.07;;;14.10;48.50;;;;;;4987806;28;20453;-78
2023/02/08 00:20:11;;;;;;;10.77;7.83;;;14.10;48.60;;;;;;4993853;28;20462;-77
2023/02/08 00:22:39;;;;;;;13.13;8.80;;;14.10;48.50;;;;;;4993985;28;20453;-77
2023/02/08 00:25:08;;;;;;;15.30;7.93;;;14.10;48.60;;;;;;4994172;28;20438;-78
2023/02/08 00:27:35;;;;;;;13.70;9.10;;;14.10;48.70;;;;;;4985903;28;20540;-77
2023/02/08 00:30:04;;;;;;;16.93;8.80;;;14.10;48.70;;;;;;4995531;28;20452;-77
2023/02/08 00:32:32;;;;;;;10.63;7.93;;;14.00;48.60;;;;;;4991270;28;20484;-77
2023/02/08 00:35:00;;;;;;;13.43;8.60;;;14.00;48.50;;;;;;4993704;28;20532;-78
2023/02/08 00:37:29;;;;;;;13.23;8.20;;;14.00;48.60;;;;;;4994307;28;20456;-77
2023/02/08 00:40:00;;;;;;;12.70;8.23;;;14.00;48.60;;;;;;4994401;28;20938;-78
2023/02/08 00:42:29;;;;;;;13.30;8.23;;;14.00;48.60;;;;;;4994529;28;20485;-78
2023/02/08 00:44:57;;;;;;;11.53;8.47;;;13.90;48.50;;;;;;4994537;28;20446;-78
2023/02/08 00:47:24;;;;;;;12.20;8.43;;;13.90;48.60;;;;;;4993638;28;20457;-77
2023/02/08 00:49:52;;;;;;;11.70;8.30;;;13.90;48.50;;;;;;4987968;28;20444;-78
2023/02/08 00:52:20;;;;;;;10.73;8.20;;;13.90;48.60;;;;;;4983911;28;20484;-78
2023/02/08 00:54:49;;;;;;;10.73;8.50;;;13.90;48.50;;;;;;4985933;28;20449;-78
2023/02/08 00:57:18;;;;;;;12.80;8.60;;;13.90;48.60;;;;;;4987091;28;20469;-78
2023/02/08 00:59:45;;;;;;;10.50;8.13;;;13.90;48.60;;;;;;4993433;28;20444;-78
2023/02/08 01:02:14;;;;;;;12.60;8.40;;;13.80;48.60;;;;;;4995034;28;20480;-78
2023/02/08 01:04:42;;;;;;;9.77;8.07;;;13.80;48.40;;;;;;4994197;28;20453;-78
2023/02/08 01:07:10;;;;;;;12.60;8.40;;;13.80;49.30;;;;;;4993209;28;20456;-78
2023/02/08 01:09:37;;;;;;;10.97;8.33;;;13.80;48.50;;;;;;4996100;28;20458;-78
2023/02/08 01:12:07;;;;;;;11.37;8.20;;;13.80;48.60;;;;;;4993012;28;20476;-77
2023/02/08 01:14:37;;;;;;;12.40;8.30;;;13.80;48.60;;;;;;4987557;28;20470;-79
2023/02/08 01:17:05;;;;;;;13.33;8.63;;;13.80;48.60;;;;;;4992114;28;20460;-78
2023/02/08 01:19:33;;;;;;;10.90;8.37;;;13.70;48.50;;;;;;4986504;28;20473;-78
2023/02/08 01:22:01;;;;;;;12.50;8.83;;;13.70;48.50;;;;;;4986625;28;20478;-78
2023/02/08 01:24:29;;;;;;;14.60;8.00;;;13.70;48.50;;;;;;4988850;28;20458;-78
2023/02/08 01:26:57;;;;;;;11.10;8.10;;;13.70;48.60;;;;;;4981456;28;20477;-78
2023/02/08 01:29:27;;;;;;;10.90;7.53;;;13.70;48.50;;;;;;4992783;28;20457;-78
2023/02/08 01:31:54;;;;;;;10.67;8.17;;;13.70;48.50;;;;;;4993449;28;20465;-79
2023/02/08 01:34:23;;;;;;;11.10;8.37;;;13.70;48.60;;;;;;4984869;28;20520;-79
2023/02/08 01:36:50;;;;;;;10.23;7.53;;;13.60;48.50;;;;;;4985509;28;20447;-78
2023/02/08 01:39:18;;;;;;;10.57;8.37;;;13.70;48.60;;;;;;4992628;28;20457;-80
2023/02/08 01:41:46;;;;;;;11.57;8.33;;;13.60;48.50;;;;;;4992665;28;20488;-77
2023/02/08 01:44:47;;;;;;;13.07;8.57;;;13.60;48.50;;;;;;4991914;28;20441;-79
2023/02/08 01:47:16;;;;;;;9.50;7.43;;;13.60;48.50;;;;;;4968172;28;20444;-78
2023/02/08 01:49:45;;;;;;;11.97;7.63;;;13.60;48.50;;;;;;4992425;28;20453;-78
2023/02/08 01:52:14;;;;;;;9.90;8.00;;;13.50;48.50;;;;;;4990379;28;20484;-79
2023/02/08 01:54:43;;;;;;;9.40;7.43;;;13.50;48.70;;;;;;4989372;28;20473;-79
2023/02/08 01:57:11;;;;;;;11.83;8.80;;;13.50;48.60;;;;;;4987047;28;20481;-77
2023/02/08 01:59:40;;;;;;;10.10;8.20;;;13.50;48.50;;;;;;4992306;28;20448;-76
2023/02/08 02:02:11;;;;;;;9.47;7.83;;;13.40;48.30;;;;;;4990353;28;20472;-77
2023/02/08 02:04:41;;;;;;;10.33;7.80;;;13.40;48.50;;;;;;4984667;28;20455;-77
2023/02/08 02:07:09;;;;;;;12.07;8.40;;;13.40;48.60;;;;;;4992157;28;20536;-78
2023/02/08 02:09:39;;;;;;;9.73;7.77;;;13.40;48.50;;;;;;4991175;28;20451;-78
2023/02/08 02:12:07;;;;;;;11.57;7.70;;;13.40;48.30;;;;;;4990941;28;20477;-79
2023/02/08 02:14:35;;;;;;;10.63;7.90;;;13.40;48.50;;;;;;4981219;28;20474;-78
2023/02/08 02:17:03;;;;;;;10.73;8.50;;;13.40;48.50;;;;;;4976918;28;20473;-78
2023/02/08 02:19:36;;;;;;;11.50;7.93;;;13.40;48.60;;;;;;4991272;28;20457;-78
2023/02/08 02:22:17;;;;;;;10.80;8.17;;;13.40;48.50;;;;;;4988817;28;20469;-78
2023/02/08 02:25:14;;;;;;;9.20;7.77;;;13.30;48.50;;;;;;4985462;28;20512;-78
2023/02/08 02:27:52;;;;;;;10.80;7.37;;;13.40;48.50;;;;;;4989264;28;20475;-78
2023/02/08 02:30:56;;;;;;;9.70;7.90;;;13.30;48.40;;;;;;4993476;28;20449;-78
2023/02/08 02:33:40;;;;;;;10.70;7.70;;;13.20;48.30;;;;;;4989936;28;20481;-78
2023/02/08 02:36:12;;;;;;;10.57;7.93;;;13.20;48.40;;;;;;4994838;28;20468;-78
2023/02/08 02:38:44;;;;;;;9.80;7.53;;;13.20;48.40;;;;;;4980389;28;20460;-79
2023/02/08 02:43:40;;;;;;;11.07;7.73;;;13.20;48.50;;;;;;4995369;28;20465;-77
2023/02/08 02:44:07;;;;;;;11.43;7.20;;;13.20;48.40;;;;;;4992498;28;20448;-78
2023/02/08 02:46:39;;;;;;;9.40;7.30;;;13.20;48.50;;;;;;4993389;28;20452;-79
2023/02/08 02:49:10;;;;;;;10.10;7.77;;;13.10;48.30;;;;;;4995260;28;20451;-79
2023/02/08 02:51:40;;;;;;;10.80;8.10;;;13.10;48.50;;;;;;4993020;28;20484;-78
2023/02/08 02:54:10;;;;;;;10.80;7.70;;;13.10;48.40;;;;;;4991901;28;20477;-78
2023/02/08 02:56:39;;;;;;;10.30;7.77;;;13.10;48.40;;;;;;4991560;28;20464;-79
2023/02/08 02:59:08;;;;;;;11.27;8.20;;;13.10;48.40;;;;;;4987551;28;20997;-78
2023/02/08 03:01:38;;;;;;;12.67;7.60;;;13.00;48.30;;;;;;5002527;28;20473;-79
2023/02/08 03:04:14;;;;;;;8.77;7.27;;;13.00;48.50;;;;;;4994217;28;20460;-78
2023/02/08 03:06:50;;;;;;;9.20;7.63;;;13.00;48.30;;;;;;4992699;28;20457;-78
2023/02/08 03:09:31;;;;;;;9.30;7.53;;;13.00;48.40;;;;;;4994326;28;20460;-78
2023/02/08 03:12:04;;;;;;;10.70;8.00;;;13.00;48.40;;;;;;5001411;28;20482;-78
2023/02/08 03:14:38;;;;;;;9.37;7.37;;;13.00;48.30;;;;;;4991468;28;20556;-78
2023/02/08 03:17:23;;;;;;;9.17;7.80;;;13.00;48.50;;;;;;5002315;28;20445;-78
2023/02/08 03:19:57;;;;;;;11.33;7.87;;;13.00;48.20;;;;;;4993276;28;20468;-78
2023/02/08 03:22:26;;;;;;;11.60;7.60;;;12.90;48.30;;;;;;4987087;28;20468;-78
2023/02/08 03:24:54;;;;;;;9.40;7.00;;;12.90;48.40;;;;;;4994223;28;20449;-77
2023/02/08 03:27:27;;;;;;;8.53;6.83;;;12.90;48.20;;;;;;4986885;28;20485;-78
2023/02/08 03:29:57;;;;;;;9.60;7.43;;;12.90;48.40;;;;;;4994068;28;20457;-78
2023/02/08 03:32:26;;;;;;;10.50;7.40;;;12.90;48.10;;;;;;4993174;28;20477;-78
2023/02/08 03:34:57;;;;;;;8.97;6.73;;;12.90;48.40;;;;;;4992867;28;20480;-77
2023/02/08 03:37:26;;;;;;;9.27;7.63;;;12.90;48.40;;;;;;4991367;28;20449;-78
2023/02/08 03:39:58;;;;;;;9.90;7.57;;;12.80;48.40;;;;;;4986306;28;20456;-78
2023/02/08 03:42:26;;;;;;;9.50;6.93;;;12.80;48.20;;;;;;4993672;28;20470;-78
2023/02/08 03:44:56;;;;;;;9.23;7.03;;;12.80;48.40;;;;;;4993727;28;20456;-78
2023/02/08 03:47:25;;;;;;;11.03;7.70;;;12.80;48.30;;;;;;4986271;28;20445;-78
2023/02/08 03:49:54;;;;;;;9.40;7.23;;;12.80;48.50;;;;;;4982634;28;20460;-78
2023/02/08 03:52:23;;;;;;;12.87;7.57;;;12.80;48.30;;;;;;4991808;28;20464;-78
2023/02/08 03:54:53;;;;;;;11.07;7.80;;;12.70;48.10;;;;;;4988406;28;20476;-78
2023/02/08 03:57:22;;;;;;;9.23;6.97;;;12.80;48.40;;;;;;4994199;28;20468;-78
2023/02/08 03:59:55;;;;;;;12.87;8.30;;;12.80;48.30;;;;;;4992967;28;20461;-77
2023/02/08 04:02:23;;;;;;;10.17;7.43;;;12.70;48.10;;;;;;4990042;28;20473;-78
2023/02/08 04:04:52;;;;;;;10.67;7.57;;;12.70;48.40;;;;;;5001808;28;20450;-78
2023/02/08 04:07:20;;;;;;;12.77;7.70;;;12.60;48.10;;;;;;4993181;28;20450;-78
2023/02/08 04:09:49;;;;;;;10.30;7.40;;;12.70;48.50;;;;;;4992817;28;20476;-78
2023/02/08 04:12:17;;;;;;;8.67;7.13;;;12.60;48.20;;;;;;4993059;28;20488;-78
2023/02/08 04:14:46;;;;;;;9.93;7.70;;;12.60;48.50;;;;;;4990214;28;20480;-78
2023/02/08 04:17:14;;;;;;;9.87;7.37;;;12.60;48.40;;;;;;4989109;28;20456;-78
2023/02/08 04:19:42;;;;;;;9.03;7.50;;;12.60;48.30;;;;;;4981610;28;20486;-77
2023/02/08 04:22:10;;;;;;;10.87;8.33;;;12.60;48.40;;;;;;4993423;28;20477;-78
2023/02/08 04:24:38;;;;;;;9.43;7.47;;;12.60;48.30;;;;;;4985790;28;20457;-78
2023/02/08 04:27:07;;;;;;;9.90;7.30;;;12.60;48.30;;;;;;4991165;28;20500;-78
2023/02/08 04:29:35;;;;;;;9.33;7.47;;;12.60;48.20;;;;;;4985511;28;20464;-78
2023/02/08 04:32:04;;;;;;;10.60;7.60;;;12.60;48.10;;;;;;4993051;28;20475;-79
2023/02/08 04:34:31;;;;;;;10.17;8.43;;;12.50;48.20;;;;;;4989690;28;20477;-78
2023/02/08 04:36:59;;;;;;;8.33;6.90;;;12.50;48.30;;;;;;4986804;28;20456;-77
2023/02/08 04:39:27;;;;;;;8.90;6.90;;;12.50;48.30;;;;;;4992769;28;20444;-79
2023/02/08 04:41:54;;;;;;;8.40;7.00;;;12.50;48.30;;;;;;4992399;28;20465;-78
2023/02/08 04:44:24;;;;;;;8.87;7.77;;;12.50;48.30;;;;;;4992629;28;20454;-78
2023/02/08 04:46:51;;;;;;;10.47;7.83;;;12.50;48.30;;;;;;4987386;28;20457;-79
2023/02/08 04:49:19;;;;;;;9.80;7.07;;;12.50;48.00;;;;;;4997803;28;20453;-78
2023/02/08 04:51:47;;;;;;;9.37;7.10;;;12.40;48.30;;;;;;4993430;28;20469;-78
2023/02/08 04:54:15;;;;;;;10.97;7.80;;;12.40;48.20;;;;;;4992435;28;20942;-78
2023/02/08 04:56:44;;;;;;;9.80;7.43;;;12.40;48.40;;;;;;4992191;28;20475;-78
2023/02/08 04:59:11;;;;;;;10.93;7.20;;;12.40;48.30;;;;;;4991447;28;20453;-79
2023/02/08 05:01:41;;;;;;;9.20;7.57;;;12.40;48.20;;;;;;4990204;28;20500;-78
2023/02/08 05:04:09;;;;;;;10.80;7.27;;;12.40;48.20;;;;;;4993378;28;20456;-79
2023/02/08 05:06:38;;;;;;;9.60;7.07;;;12.40;48.20;;;;;;4985514;28;20451;-78
2023/02/08 05:09:07;;;;;;;11.40;8.17;;;12.40;48.30;;;;;;4991976;28;20468;-78
2023/02/08 05:11:35;;;;;;;9.50;7.30;;;12.30;48.10;;;;;;4991903;28;20476;-79
2023/02/08 05:14:03;;;;;;;9.87;7.40;;;12.30;48.10;;;;;;4989413;28;20449;-79
2023/02/08 05:16:31;;;;;;;10.13;7.63;;;12.30;48.30;;;;;;4992117;28;20485;-78
2023/02/08 05:19:00;;;;;;;9.50;7.20;;;12.30;48.40;;;;;;4992190;28;20469;-78
2023/02/08 05:21:28;;;;;;;8.50;7.20;;;12.20;48.30;;;;;;4992791;28;20470;-79
2023/02/08 05:23:56;;;;;;;10.03;8.50;;;12.30;48.30;;;;;;4992975;28;20460;-79
2023/02/08 05:26:25;;;;;;;9.77;6.83;;;12.30;48.30;;;;;;4992457;28;20477;-78
2023/02/08 05:28:53;;;;;;;9.33;7.20;;;12.20;48.30;;;;;;4992815;28;20508;-77
2023/02/08 05:31:22;;;;;;;9.47;6.87;;;12.20;48.20;;;;;;4992376;28;20488;-79
2023/02/08 05:33:50;;;;;;;9.17;6.53;;;12.20;48.30;;;;;;4975437;28;20449;-79
2023/02/08 05:36:20;;;;;;;8.70;7.23;;;12.20;48.40;;;;;;4990681;28;20499;-79
2023/02/08 05:38:48;;;;;;;11.80;7.43;;;12.20;48.30;;;;;;4991879;28;20460;-78
2023/02/08 05:41:16;;;;;;;11.23;7.60;;;12.20;48.30;;;;;;4987674;28;20479;-78
2023/02/08 05:43:44;;;;;;;9.07;7.03;;;12.20;48.40;;;;;;4990517;28;20441;-78
2023/02/08 05:46:12;;;;;;;9.73;7.53;;;12.20;48.30;;;;;;4990378;28;20511;-78
2023/02/08 05:48:41;;;;;;;11.73;7.83;;;12.20;48.30;;;;;;4989748;28;20469;-79
2023/02/08 05:51:09;;;;;;;9.97;7.13;;;12.20;48.40;;;;;;4989208;28;20491;-78
2023/02/08 05:53:39;;;;;;;10.20;7.47;;;12.10;48.20;;;;;;4991111;28;20453;-78
2023/02/08 05:56:07;;;;;;;8.87;6.93;;;12.10;48.20;;;;;;4987576;28;20485;-78
2023/02/08 05:58:35;;;;;;;9.80;7.50;;;12.10;48.30;;;;;;4985695;28;20468;-78
2023/02/08 06:01:08;;;;;;;10.10;7.63;;;12.10;48.20;;;;;;4988963;28;20449;-78
2023/02/08 06:03:36;;;;;;;9.97;7.70;;;12.10;48.40;;;;;;4991421;28;20486;-76
2023/02/08 06:06:04;;;;;;;10.37;7.40;;;12.10;48.40;;;;;;4991680;28;20449;-79
2023/02/08 06:08:32;;;;;;;10.63;7.70;;;12.00;48.20;;;;;;4987940;28;20460;-78
2023/02/08 06:11:01;;;;;;;9.67;7.10;;;12.00;48.20;;;;;;4984661;28;20469;-79
2023/02/08 06:13:29;;;;;;;9.87;7.00;;;12.00;48.30;;;;;;4994835;28;20452;-77
2023/02/08 06:15:57;;;;;;;11.07;7.67;;;12.00;48.30;;;;;;4991796;28;20464;-79
2023/02/08 06:18:25;;;;;;;8.77;6.77;;;12.00;48.20;;;;;;4987732;28;20465;-79
2023/02/08 06:20:54;;;;;;;9.13;7.07;;;12.00;48.30;;;;;;4993642;28;20457;-76
2023/02/08 06:23:21;;;;;;;10.77;7.23;;;12.00;48.50;;;;;;4995767;28;20448;-76
2023/02/08 06:25:50;;;;;;;9.57;7.07;;;12.00;48.40;;;;;;4988489;28;20469;-78
2023/02/08 06:28:19;;;;;;;8.17;6.80;;;12.00;48.60;;;;;;4995699;28;20793;-77
2023/02/08 06:30:48;;;;;;;10.10;7.27;;;11.90;48.50;;;;;;4994077;28;20457;-77
2023/02/08 06:33:16;;;;;;;8.63;6.97;;;12.00;48.60;;;;;;4995230;28;20661;-77
2023/02/08 06:35:45;;;;;;;9.93;7.27;;;11.90;48.40;;;;;;4993383;28;20994;-76
2023/02/08 06:38:13;;;;;;;11.90;7.80;;;11.90;48.40;;;;;;4993616;28;20453;-77
2023/02/08 06:40:41;;;;;;;10.43;7.27;;;11.90;48.50;;;;;;4995026;28;20556;-77
2023/02/08 06:43:09;;;;;;;9.13;6.97;;;11.90;48.50;;;;;;4984545;28;20470;-77
2023/02/08 06:45:38;;;;;;;9.60;7.10;;;11.90;48.50;;;;;;4993423;28;20453;-77
2023/02/08 06:48:07;;;;;;;9.60;6.90;;;11.90;48.70;;;;;;4994907;28;20555;-78
2023/02/08 06:50:36;;;;;;;9.83;7.23;;;11.90;48.50;;;;;;4987566;28;20476;-78
2023/02/08 06:53:04;;;;;;;9.43;6.50;;;11.90;48.50;;;;;;4993569;28;20535;-77
2023/02/08 06:55:32;;;;;;;8.30;6.47;;;11.90;48.50;;;;;;4992718;28;20445;-77
2023/02/08 06:58:00;;;;;;;9.07;6.20;;;11.80;48.30;;;;;;4990183;28;20456;-77
2023/02/08 07:00:28;;;;;;;9.97;6.87;;;11.90;48.60;;;;;;4989708;28;20464;-78
2023/02/08 07:02:59;;;;;;;9.50;7.10;;;11.80;48.50;;;;;;4987384;28;20496;-77
2023/02/08 07:05:27;;;;;;;8.87;7.13;;;11.80;48.50;;;;;;4992025;28;20449;-78
2023/02/08 07:07:55;;;;;;;7.70;6.73;;;11.80;48.50;;;;;;4989468;28;20465;-78
2023/02/08 07:10:23;;;;;;;10.37;7.73;;;11.80;48.60;;;;;;4994808;28;20437;-77
2023/02/08 07:12:51;;;;;;;8.37;6.53;;;11.80;48.60;;;;;;4992140;28;20477;-77
2023/02/08 07:15:19;;;;;;;9.50;7.10;;;11.80;48.60;;;;;;4993925;28;20461;-77
2023/02/08 07:17:47;;;;;;;10.47;7.40;;;11.80;48.60;;;;;;4994210;28;20477;-78
2023/02/08 07:20:17;;;;;;;9.60;7.13;;;11.80;48.50;;;;;;4987895;28;20465;-78
2023/02/08 07:22:46;;;;;;;9.10;7.00;;;11.80;48.60;;;;;;4994609;28;20472;-77
2023/02/08 07:25:13;;;;;;;9.53;7.27;;;11.80;48.60;;;;;;4990513;28;20455;-78
2023/02/08 07:27:42;;;;;;;9.63;7.57;;;11.80;48.70;;;;;;4993827;28;20479;-77
2023/02/08 07:30:11;;;;;;;9.13;7.37;;;11.80;48.60;;;;;;4994993;28;20472;-77
2023/02/08 07:32:39;;;;;;;9.07;7.13;;;11.80;48.50;;;;;;4986032;28;20561;-77
2023/02/08 07:35:08;;;;;;;8.30;7.37;;;11.80;48.60;;;;;;4988303;28;20452;-78
2023/02/08 07:37:37;;;;;;;7.60;6.80;;;11.80;48.50;;;;;;4993993;28;20496;-77
2023/02/08 07:40:05;;;;;;;9.33;7.17;;;11.80;48.60;;;;;;4989495;28;20462;-77
2023/02/08 07:42:33;;;;;;;9.50;7.20;;;11.90;48.70;;;;;;4992343;28;20467;-77
2023/02/08 07:45:03;;;;;;;8.70;7.03;;;11.80;48.50;;;;;;4989263;28;20492;-78
2023/02/08 07:47:31;;;;;;;8.67;7.17;;;11.80;48.60;;;;;;4993227;28;20524;-77
2023/02/08 07:49:59;;;;;;;12.03;7.57;;;11.80;48.60;;;;;;4993869;28;20461;-79
2023/02/08 07:52:26;;;;;;;8.47;6.70;;;11.90;48.50;;;;;;4993966;28;20468;-77
2023/02/08 07:54:56;;;;;;;8.50;7.13;;;11.90;48.60;;;;;;4986342;28;20460;-78
2023/02/08 07:57:24;;;;;;;10.83;7.47;;;11.90;48.60;;;;;;4992253;28;21009;-77
2023/02/08 07:59:52;;;;;;;9.40;7.40;;;11.90;48.70;;;;;;4994448;28;20453;-78
2023/02/08 08:02:21;;;;;;;8.73;6.80;;;11.90;48.80;;;;;;4985789;28;20480;-78
2023/02/08 08:04:49;;;;;;;8.27;6.60;;;11.90;48.80;;;;;;4993950;28;20453;-78
2023/02/08 08:07:17;;;;;;;9.90;7.10;;;11.90;48.70;;;;;;4993754;28;20448;-78
2023/02/08 08:09:45;;;;;;;10.50;7.80;;;11.90;48.80;;;;;;4992830;28;20454;-78
2023/02/08 08:12:14;;;;;;;8.73;7.00;;;11.90;48.80;;;;;;4990350;28;20488;-78
2023/02/08 08:14:42;;;;;;;8.47;6.80;;;12.00;49.00;;;;;;4986108;28;20457;-78
2023/02/08 08:17:10;;;;;;;9.50;7.00;;;12.00;48.90;;;;;;4989947;28;20477;-78
2023/02/08 08:19:41;;;;;;;9.10;7.10;;;12.00;49.00;;;;;;4986061;28;20473;-78
2023/02/08 08:22:09;;;;;;;9.43;7.00;;;12.00;49.20;;;;;;4988804;28;20483;-78
2023/02/08 08:24:37;;;;;;;8.67;6.70;;;12.00;49.10;;;;;;4991921;28;20445;-78
2023/02/08 08:27:05;;;;;;;8.30;7.20;;;12.10;49.20;;;;;;4986898;28;20469;-77
2023/02/08 08:29:35;;;;;;;9.30;7.27;;;12.10;49.10;;;;;;4992491;28;20445;-78
2023/02/08 08:32:04;;;;;;;11.80;7.80;;;12.20;49.40;;;;;;4986024;28;20477;-77
2023/02/08 08:34:31;;;;;;;7.90;7.10;;;12.30;49.30;;;;;;4986589;28;20449;-77
2023/02/08 08:37:00;;;;;;;11.93;8.07;;;12.30;49.50;;;;;;4987261;28;20489;-77
2023/02/08 08:39:27;;;;;;;9.33;7.00;;;12.40;49.60;;;;;;4991537;28;20458;-77
2023/02/08 08:41:57;;;;;;;9.10;7.70;;;12.40;49.70;;;;;;4987512;28;20465;-78
2023/02/08 08:44:25;;;;;;;10.30;7.80;;;12.50;49.80;;;;;;4984564;28;20452;-78
2023/02/08 08:46:56;;;;;;;11.53;8.67;;;12.60;49.80;;;;;;4991146;28;20453;-77
2023/02/08 08:49:24;;;;;;;13.57;9.00;;;12.70;49.70;;;;;;4991125;28;20453;-77
2023/02/08 08:51:51;;;;;;;14.50;9.73;;;12.70;49.80;;;;;;4990983;28;20477;-77
2023/02/08 08:54:19;;;;;;;13.50;10.10;;;12.90;50.00;;;;;;4982969;28;20458;-77
2023/02/08 08:56:47;;;;;;;16.10;10.00;;;13.00;50.20;;;;;;4990781;28;20481;-77
2023/02/08 08:59:14;;;;;;;15.33;10.70;;;13.10;50.30;;;;;;4997843;28;20453;-78
2023/02/08 09:01:43;;;;;;;14.87;10.30;;;13.20;50.50;;;;;;4985141;28;20472;-77
2023/02/08 09:04:12;;;;;;;16.10;10.87;;;13.40;50.90;;;;;;4993366;28;20437;-77
2023/02/08 09:06:40;;;;;;;16.83;11.17;;;13.60;51.10;;;;;;4982881;28;20450;-76
2023/02/08 09:09:08;;;;;;;18.93;12.00;;;13.80;51.40;;;;;;4992809;28;20453;-78
2023/02/08 09:11:36;;;;;;;15.27;11.17;;;14.00;51.60;;;;;;4987643;28;20470;-76
2023/02/08 09:14:04;;;;;;;16.53;11.67;;;14.30;52.10;;;;;;4983015;28;20437;-78
2023/02/08 09:16:32;;;;;;;17.50;12.23;;;14.50;52.20;;;;;;4989995;28;20449;-78
2023/02/08 09:19:01;;;;;;;17.50;12.50;;;14.80;52.60;;;;;;4990287;28;20483;-77
2023/02/08 09:21:30;;;;;;;17.50;12.33;;;15.00;52.70;;;;;;4992002;28;20453;-78
2023/02/08 09:23:57;;;;;;;16.93;12.70;;;15.20;53.00;;;;;;4987927;28;20456;-79
2023/02/08 09:26:25;;;;;;;24.40;12.87;;;15.50;53.40;;;;;;4992946;28;20457;-78
2023/02/08 09:28:53;;;;;;;18.33;12.83;;;15.70;53.50;;;;;;4989910;28;20436;-78
2023/02/08 09:31:22;;;;;;;23.00;12.30;;;16.00;53.80;;;;;;4992787;28;20461;-77
2023/02/08 09:33:50;;;;;;;16.00;12.13;;;16.20;53.80;;;;;;4977513;28;20434;-77
2023/02/08 09:36:18;;;;;;;17.57;12.30;;;16.50;54.10;;;;;;4983294;28;20450;-78
2023/02/08 09:38:48;;;;;;;16.30;12.60;;;16.70;54.20;;;;;;4988323;28;20473;-77
2023/02/08 09:41:24;;;;;;;20.67;13.13;;;16.90;54.40;;;;;;4992584;28;20473;-77
2023/02/08 09:43:56;;;;;;;15.97;11.80;;;17.10;54.50;;;;;;4993853;28;20460;-78
2023/02/08 09:46:25;;;;;;;18.00;12.70;;;17.30;54.70;;;;;;4991524;28;20456;-78
2023/02/08 09:48:55;;;;;;;17.13;11.57;;;17.50;54.80;;;;;;4992241;28;20445;-80
2023/02/08 09:51:26;;;;;;;15.67;11.93;;;17.60;54.80;;;;;;4991558;28;20489;-77
2023/02/08 09:53:57;;;;;;;15.03;11.17;;;17.90;55.00;;;;;;4994554;28;20449;-78
2023/02/08 09:56:28;;;;;;;15.30;11.80;;;18.20;55.20;;;;;;4993641;28;20469;-78
2023/02/08 09:58:55;;;;;;;13.63;10.90;;;18.40;55.00;;;;;;4995857;28;20476;-78
2023/02/08 10:01:25;;;;;;;12.17;10.33;;;18.60;55.10;;;;;;4996604;28;21009;-79
2023/02/08 10:03:55;;;;;;;12.03;10.00;;;18.90;55.20;;;;;;4990197;28;20453;-79
2023/02/08 10:06:23;;;;;;;12.27;10.13;;;19.10;55.20;;;;;;4996221;28;20453;-78
2023/02/08 10:08:51;;;;;;;12.67;10.50;;;19.30;55.10;;;;;;4996269;28;20456;-79
2023/02/08 10:11:38;;;;;;;12.30;10.37;;;19.60;55.20;;;;;;4988087;28;20465;-79
2023/02/08 10:14:14;;;;;;;12.90;10.30;;;19.80;54.90;;;;;;4996027;28;20441;-79
2023/02/08 10:16:50;;;;;;;11.33;9.60;;;20.00;54.90;;;;;;4994127;28;20440;-78
2023/02/08 10:19:25;;;;;;;11.03;8.83;;;20.30;54.90;;;;;;4992888;28;20530;-80
2023/02/08 10:22:00;;;;;;;11.53;9.23;;;20.40;54.60;;;;;;4995881;28;20483;-79
2023/02/08 10:24:46;;;;;;;11.33;9.00;;;20.70;54.50;;;;;;4994784;28;20520;-79
2023/02/08 10:27:16;;;;;;;12.60;9.53;;;20.90;54.40;;;;;;4995493;28;20547;-78
2023/02/08 10:30:10;;;;;;;11.80;8.97;;;21.10;54.30;;;;;;4995539;28;20491;-79
2023/02/08 10:32:44;;;;;;;9.03;8.10;;;21.30;54.00;;;;;;4987400;28;20461;-78
2023/02/08 10:35:24;;;;;;;12.00;9.40;;;21.50;53.80;;;;;;4983663;28;20461;-78
2023/02/08 10:37:52;;;;;;;12.43;8.63;;;21.70;53.60;;;;;;4994165;28;20476;-79
2023/02/08 10:40:31;;;;;;;10.67;8.27;;;21.90;53.30;;;;;;4992582;28;20652;-77
2023/02/08 10:43:06;;;;;;;11.53;8.53;;;22.10;53.00;;;;;;4990068;28;20461;-78
2023/02/08 10:45:36;;;;;;;8.60;7.77;;;22.30;52.80;;;;;;4995041;28;20447;-79
2023/02/08 10:48:05;;;;;;;8.83;7.87;;;22.50;52.70;;;;;;4988415;28;20448;-79
2023/02/08 10:50:35;;;;;;;10.07;8.00;;;22.70;52.40;;;;;;4989976;28;20447;-78
2023/02/08 10:53:03;;;;;;;8.97;7.93;;;22.90;52.10;;;;;;4995160;28;20446;-79
2023/02/08 10:55:31;;;;;;;12.07;7.53;;;23.10;51.80;;;;;;4994564;28;20441;-78
2023/02/08 10:58:04;;;;;;;11.50;7.10;;;23.30;51.50;;;;;;4991246;28;20955;-79
2023/02/08 11:00:34;;;;;;;7.70;7.00;;;23.50;51.20;;;;;;4990785;28;20457;-79
2023/02/08 11:03:08;;;;;;;13.67;7.70;;;23.80;51.00;;;;;;4994981;28;20471;-79
2023/02/08 11:05:37;;;;;;;7.80;6.90;;;23.90;50.50;;;;;;4991482;28;20409;-78
2023/02/08 11:08:06;;;;;;;7.97;7.00;;;24.20;50.30;;;;;;4990432;28;20446;-79
2023/02/08 11:10:34;;;;;;;7.40;6.70;;;24.30;50.00;;;;;;4991833;28;20420;-79
2023/02/08 11:13:05;;;;;;;7.50;6.77;;;24.50;49.70;;;;;;4991710;28;20461;-79
2023/02/08 11:15:37;;;;;;;7.33;6.63;;;24.80;49.50;;;;;;4994073;28;20419;-77
2023/02/08 11:18:06;;;;;;;7.60;6.90;;;25.00;49.10;;;;;;4991317;28;20487;-79
2023/02/08 11:20:36;;;;;;;7.17;6.47;;;25.20;48.70;;;;;;4993340;28;20438;-78
2023/02/08 11:23:05;;;;;;;7.73;6.30;;;25.40;48.40;;;;;;4991609;28;20473;-79
2023/02/08 11:25:35;;;;;;;7.17;6.47;;;25.60;48.00;;;;;;4993679;28;20428;-79
2023/02/08 11:28:05;;;;;;;6.60;6.00;;;25.90;47.70;;;;;;4992393;28;20438;-77
2023/02/08 11:30:33;;;;;;;6.80;5.83;;;26.10;47.20;;;;;;4993452;28;20520;-79
2023/02/08 11:33:17;;;;;;;9.10;6.93;;;26.30;46.90;;;;;;4990500;28;20453;-78
2023/02/08 11:35:52;;;;;;;8.17;6.30;;;26.50;46.40;;;;;;4986924;28;20419;-79
2023/02/08 11:38:26;;;;;;;13.30;7.90;;;26.70;46.00;;;;;;4993525;28;20451;-79
2023/02/08 11:40:54;;;;;;;7.67;6.87;;;27.00;45.70;;;;;;4989785;28;20465;-79
2023/02/08 11:43:25;;;;;;;7.67;6.97;;;27.30;45.40;;;;;;4984115;28;20417;-80
2023/02/08 11:45:54;;;;;;;8.90;8.00;;;27.40;45.00;;;;;;4992407;28;20419;-79
2023/02/08 11:48:24;;;;;;;8.17;7.37;;;27.70;44.90;;;;;;4991126;28;20412;-79
2023/02/08 11:50:54;;;;;;;8.57;7.77;;;27.90;44.30;;;;;;4993411;28;20424;-78
2023/02/08 11:53:26;;;;;;;8.30;7.40;;;28.10;44.00;;;;;;4990481;28;20420;-79
2023/02/08 11:56:06;;;;;;;10.40;8.40;;;28.30;43.50;;;;;;4987712;28;20428;-78
2023/02/08 11:58:36;;;;;;;8.87;8.03;;;28.60;42.90;;;;;;4992236;28;20979;-79
2023/02/08 12:01:05;;;;;;;9.23;8.23;;;28.90;42.60;;;;;;4986903;28;20424;-79
2023/02/08 12:03:36;;;;;;;9.37;7.70;;;29.20;41.80;;;;;;4994263;28;20857;-79
2023/02/08 12:06:13;;;;;;;9.90;7.83;;;29.40;41.50;;;;;;4989141;28;20449;-79
2023/02/08 12:08:42;;;;;;;9.00;8.10;;;29.60;41.00;;;;;;4983995;28;20412;-77
2023/02/08 12:11:16;;;;;;;8.67;7.23;;;29.80;40.70;;;;;;4989483;28;20469;-77
2023/02/08 12:14:02;;;;;;;8.40;7.60;;;30.10;40.10;;;;;;4987155;28;20483;-78
2023/02/08 12:16:37;;;;;;;8.10;7.20;;;30.20;39.20;;;;;;4992632;28;20961;-78
2023/02/08 12:19:18;;;;;;;8.07;7.27;;;30.40;39.00;;;;;;4992077;28;20483;-78
2023/02/08 12:21:46;;;;;;;8.37;7.50;;;30.70;38.80;;;;;;4990831;28;20488;-78
2023/02/08 12:24:17;;;;;;;7.80;7.10;;;30.80;38.30;;;;;;4992918;28;20445;-78
2023/02/08 12:26:56;;;;;;;7.87;7.17;;;31.00;38.00;;;;;;4989640;28;20465;-76
2023/02/08 12:29:37;;;;;;;8.47;6.70;;;31.20;37.30;;;;;;4986467;28;20477;-77
2023/02/08 12:32:30;;;;;;;7.40;6.73;;;31.30;37.00;;;;;;4982882;28;20473;-76
2023/02/08 12:35:09;;;;;;;7.97;7.13;;;31.60;36.50;;;;;;4979593;28;20449;-76
2023/02/08 12:40:52;;;;;;;7.17;6.50;;;31.90;36.10;;;;;;4982858;28;20531;-76
2023/02/08 12:43:44;;;;;;;6.60;6.10;;;32.00;35.60;;;;;;4987623;28;20457;-77
2023/02/08 12:46:22;;;;;;;7.63;5.70;;;32.20;35.20;;;;;;4983756;28;20446;-78
2023/02/08 12:49:01;;;;;;;7.10;6.07;;;32.40;35.10;;;;;;4989447;28;20433;-76
2023/02/08 12:51:33;;;;;;;6.57;5.97;;;32.50;34.50;;;;;;4989898;28;20500;-76
2023/02/08 12:54:03;;;;;;;6.30;5.70;;;32.70;34.20;;;;;;4986918;28;20655;-76
2023/02/08 12:56:33;;;;;;;6.17;5.67;;;32.70;33.80;;;;;;4990491;28;20453;-77
2023/02/08 12:59:01;;;;;;;5.83;5.17;;;32.80;33.50;;;;;;4992269;28;20469;-77